Time;durP1;ratioP1;P1;durP2;ratioP2;P2;SDS_P1;SDS_P2;PMS_P1;PMS_P2;Temp;Humidity;BMP_temperature;BMP_pressure;BME280_temperature;BME280_humidity;BME280_pressure;Samples;Min_cycle;Max_cycle;Signal;HPM_P1;HPM_P2
2023/11/24 00:04:24;;;;;;;32.40;19.87;;;;;;;;;;10398709;28;20551;-83
2023/11/24 00:09:29;;;;;;;29.83;18.55;;;;;;;;;;10402515;28;20435;-83
2023/11/24 00:14:32;;;;;;;29.87;18.73;;;;;;;;;;10400621;28;20543;-83
2023/11/24 00:19:35;;;;;;;33.45;18.98;;;;;;;;;;10399993;28;20515;-83
2023/11/24 00:24:38;;;;;;;31.57;17.70;;;;;;;;;;10412437;28;20869;-84
2023/11/24 00:29:42;;;;;;;32.30;19.45;;;;;;;;;;10408030;28;20480;-83
2023/11/24 00:34:44;;;;;;;34.90;19.05;;;;;;;;;;10412427;28;20448;-83
2023/11/24 00:39:49;;;;;;;29.97;18.83;;;;;;;;;;10407517;28;20477;-83
2023/11/24 00:44:53;;;;;;;31.17;18.15;;;;;;;;;;10405281;28;21039;-82
2023/11/24 00:49:56;;;;;;;30.13;18.60;;;;;;;;;;10413935;28;20480;-82
2023/11/24 00:54:58;;;;;;;30.17;18.88;;;;;;;;;;10406668;28;20499;-83
2023/11/24 01:00:04;;;;;;;29.67;18.27;;;;;;;;;;10401024;28;20459;-84
2023/11/24 01:05:09;;;;;;;28.65;17.40;;;;;;;;;;10414636;28;21115;-84
2023/11/24 01:10:11;;;;;;;28.42;17.33;;;;;;;;;;10406288;28;20447;-83
2023/11/24 01:15:15;;;;;;;28.37;16.27;;;;;;;;;;10409168;28;20439;-84
2023/11/24 01:20:18;;;;;;;29.45;16.90;;;;;;;;;;10410032;28;20481;-84
2023/11/24 01:25:21;;;;;;;26.85;16.45;;;;;;;;;;10402621;28;20460;-85
2023/11/24 01:30:24;;;;;;;30.67;17.38;;;;;;;;;;10405203;28;20478;-84
2023/11/24 01:35:27;;;;;;;29.43;17.10;;;;;;;;;;10406868;28;20435;-84
2023/11/24 01:40:30;;;;;;;31.70;18.73;;;;;;;;;;10399899;28;20503;-84
2023/11/24 01:45:34;;;;;;;29.67;17.75;;;;;;;;;;10410013;28;20518;-85
2023/11/24 01:50:38;;;;;;;27.65;17.13;;;;;;;;;;10411153;28;20431;-84
2023/11/24 01:55:41;;;;;;;26.75;17.02;;;;;;;;;;10408743;28;20500;-85
2023/11/24 02:00:45;;;;;;;29.40;17.23;;;;;;;;;;10405131;28;20463;-85
2023/11/24 02:05:48;;;;;;;29.33;16.87;;;;;;;;;;10412482;28;20558;-85
2023/11/24 02:10:51;;;;;;;27.98;16.48;;;;;;;;;;10400157;28;20537;-85
2023/11/24 02:15:54;;;;;;;28.30;16.53;;;;;;;;;;10403566;28;21969;-85
2023/11/24 02:21:00;;;;;;;31.75;17.98;;;;;;;;;;10404672;28;20506;-84
2023/11/24 02:26:04;;;;;;;27.95;17.45;;;;;;;;;;10404301;28;20502;-85
2023/11/24 02:31:07;;;;;;;29.80;18.05;;;;;;;;;;10407642;28;20475;-85
2023/11/24 02:36:17;;;;;;;31.70;18.45;;;;;;;;;;10409971;28;20535;-84
2023/11/24 02:41:21;;;;;;;33.95;18.13;;;;;;;;;;10401333;28;20620;-85
2023/11/24 02:46:24;;;;;;;30.25;18.23;;;;;;;;;;10403749;28;20514;-85
2023/11/24 02:51:26;;;;;;;31.88;18.45;;;;;;;;;;10403045;28;20524;-85
2023/11/24 02:56:30;;;;;;;28.23;17.70;;;;;;;;;;10407076;28;21284;-84
2023/11/24 03:01:32;;;;;;;29.00;17.55;;;;;;;;;;10403961;28;20509;-85
2023/11/24 03:06:41;;;;;;;31.40;18.60;;;;;;;;;;10407695;28;20465;-84
2023/11/24 03:11:44;;;;;;;29.35;18.02;;;;;;;;;;10403028;28;21219;-85
2023/11/24 03:16:47;;;;;;;34.88;19.27;;;;;;;;;;10403709;28;20501;-85
2023/11/24 03:21:50;;;;;;;28.67;17.50;;;;;;;;;;10405911;28;21121;-83
2023/11/24 03:26:54;;;;;;;30.13;17.48;;;;;;;;;;10402375;28;20518;-84
2023/11/24 03:31:56;;;;;;;28.50;17.75;;;;;;;;;;10407716;28;20514;-84
2023/11/24 03:36:58;;;;;;;28.67;17.70;;;;;;;;;;10404769;28;20924;-84
2023/11/24 03:42:02;;;;;;;30.00;17.90;;;;;;;;;;10407307;28;20525;-85
2023/11/24 03:47:05;;;;;;;29.52;18.23;;;;;;;;;;10404250;28;20542;-83
2023/11/24 03:52:08;;;;;;;33.27;18.97;;;;;;;;;;10408949;28;20423;-84
2023/11/24 03:57:11;;;;;;;33.13;19.40;;;;;;;;;;10400774;28;20487;-85
2023/11/24 04:02:14;;;;;;;32.35;19.35;;;;;;;;;;10408964;28;20437;-84
2023/11/24 04:07:16;;;;;;;34.37;20.60;;;;;;;;;;10412846;28;20457;-84
2023/11/24 04:12:20;;;;;;;31.85;21.00;;;;;;;;;;10414614;28;20509;-82
2023/11/24 04:17:22;;;;;;;33.40;20.75;;;;;;;;;;10406548;28;20523;-84
2023/11/24 04:22:25;;;;;;;33.95;21.35;;;;;;;;;;10418541;28;20522;-83
2023/11/24 04:27:29;;;;;;;32.88;19.95;;;;;;;;;;10409753;28;20461;-84
2023/11/24 04:32:32;;;;;;;35.00;20.42;;;;;;;;;;10410673;28;20433;-84
2023/11/24 04:37:34;;;;;;;35.33;20.27;;;;;;;;;;10402145;28;20530;-83
2023/11/24 04:42:38;;;;;;;32.43;19.93;;;;;;;;;;10408666;28;21034;-83
2023/11/24 04:47:40;;;;;;;30.33;18.77;;;;;;;;;;10414271;28;21024;-83
2023/11/24 04:52:43;;;;;;;31.00;18.85;;;;;;;;;;10402203;28;20447;-84
2023/11/24 04:57:50;;;;;;;31.00;18.75;;;;;;;;;;10410747;28;20440;-83
2023/11/24 05:02:53;;;;;;;29.80;18.30;;;;;;;;;;10409366;28;20466;-83
2023/11/24 05:07:55;;;;;;;28.67;17.47;;;;;;;;;;10417305;28;20584;-83
2023/11/24 05:12:59;;;;;;;25.70;16.60;;;;;;;;;;10406300;28;20969;-84
2023/11/24 05:18:04;;;;;;;23.58;14.57;;;;;;;;;;10412418;28;20443;-83
2023/11/24 05:23:06;;;;;;;22.27;13.93;;;;;;;;;;10409955;28;20980;-84
2023/11/24 05:28:10;;;;;;;25.05;15.82;;;;;;;;;;10414141;28;20451;-83
2023/11/24 05:33:12;;;;;;;23.90;14.70;;;;;;;;;;10412263;28;20979;-83
2023/11/24 05:38:15;;;;;;;22.50;14.40;;;;;;;;;;10411784;28;20497;-84
2023/11/24 05:43:19;;;;;;;22.73;13.73;;;;;;;;;;10403487;28;20444;-83
2023/11/24 05:48:21;;;;;;;21.83;13.23;;;;;;;;;;10404522;28;20652;-83
2023/11/24 05:53:23;;;;;;;24.05;14.18;;;;;;;;;;10437920;28;20659;-84
2023/11/24 05:58:27;;;;;;;23.13;13.93;;;;;;;;;;10406835;28;20475;-82
2023/11/24 06:03:30;;;;;;;20.27;12.82;;;;;;;;;;10402999;28;20549;-83
2023/11/24 06:08:32;;;;;;;19.40;12.55;;;;;;;;;;10406638;28;20503;-84
2023/11/24 06:13:36;;;;;;;19.60;12.87;;;;;;;;;;10404796;28;20515;-83
2023/11/24 06:18:40;;;;;;;19.65;12.40;;;;;;;;;;10396524;28;20498;-84
2023/11/24 06:24:13;;;;;;;20.20;12.07;;;;;;;;;;9100231;28;21008;-79
2023/11/24 06:29:17;;;;;;;19.50;11.97;;;;;;;;;;10397128;28;20633;-86
2023/11/24 06:34:20;;;;;;;20.13;11.87;;;;;;;;;;10410206;28;20437;-86
2023/11/24 06:39:23;;;;;;;19.50;11.63;;;;;;;;;;10416109;28;20891;-89
2023/11/24 06:44:27;;;;;;;18.40;11.65;;;;;;;;;;10441571;28;20463;-87
2023/11/24 06:49:31;;;;;;;21.15;13.55;;;;;;;;;;10447848;28;20780;-88
2023/11/24 06:54:34;;;;;;;21.33;11.95;;;;;;;;;;10445729;28;20891;-88
2023/11/24 06:59:38;;;;;;;20.08;12.02;;;;;;;;;;10460896;28;20491;-86
2023/11/24 07:04:42;;;;;;;18.98;11.90;;;;;;;;;;10447019;28;20481;-87
2023/11/24 07:09:45;;;;;;;17.88;11.40;;;;;;;;;;10447380;28;20423;-86
2023/11/24 07:14:48;;;;;;;19.38;10.65;;;;;;;;;;10465135;28;20432;-87
2023/11/24 07:19:51;;;;;;;17.48;11.45;;;;;;;;;;10454701;28;20752;-87
2023/11/24 07:24:55;;;;;;;17.70;11.25;;;;;;;;;;10449912;28;20406;-85
2023/11/24 07:29:58;;;;;;;17.63;10.70;;;;;;;;;;10442964;28;20463;-86
2023/11/24 07:35:01;;;;;;;18.33;10.63;;;;;;;;;;10447578;28;20438;-85
2023/11/24 07:40:07;;;;;;;17.13;10.48;;;;;;;;;;10461030;28;21065;-87
2023/11/24 07:45:11;;;;;;;18.10;10.85;;;;;;;;;;10454628;28;20396;-86
2023/11/24 07:50:13;;;;;;;20.55;10.32;;;;;;;;;;10456237;28;20416;-87
2023/11/24 07:55:16;;;;;;;17.30;9.87;;;;;;;;;;10440721;28;20408;-86
2023/11/24 08:00:21;;;;;;;17.02;10.05;;;;;;;;;;10463350;28;20446;-86
2023/11/24 08:05:23;;;;;;;17.30;9.30;;;;;;;;;;10443311;28;20467;-87
2023/11/24 08:10:27;;;;;;;16.75;9.85;;;;;;;;;;10448622;28;20887;-86
2023/11/24 08:15:31;;;;;;;17.23;10.38;;;;;;;;;;10452168;28;20868;-81
2023/11/24 08:20:33;;;;;;;17.10;10.25;;;;;;;;;;10444599;28;20475;-82
2023/11/24 08:25:36;;;;;;;16.13;10.60;;;;;;;;;;10433946;28;20467;-81
2023/11/24 08:30:40;;;;;;;16.95;9.68;;;;;;;;;;10452573;28;20408;-83
2023/11/24 08:35:42;;;;;;;17.02;9.93;;;;;;;;;;10443891;28;20901;-87
2023/11/24 08:40:44;;;;;;;15.88;10.35;;;;;;;;;;10484047;28;20410;-87
2023/11/24 08:45:48;;;;;;;16.48;9.98;;;;;;;;;;10457488;28;20933;-87
2023/11/24 08:50:51;;;;;;;16.73;9.07;;;;;;;;;;10461719;28;20496;-88
2023/11/24 08:55:54;;;;;;;14.68;8.90;;;;;;;;;;10484625;28;20448;-88
2023/11/24 09:00:57;;;;;;;14.90;8.83;;;;;;;;;;10477904;28;20411;-88
2023/11/24 09:06:00;;;;;;;15.57;8.88;;;;;;;;;;10466146;28;20493;-88
2023/11/24 09:11:04;;;;;;;14.95;8.68;;;;;;;;;;10461443;28;20448;-88
2023/11/24 09:16:08;;;;;;;12.98;8.00;;;;;;;;;;10497156;23;20431;-87
2023/11/24 09:21:10;;;;;;;18.48;9.00;;;;;;;;;;10517097;28;20868;-88
2023/11/24 09:26:13;;;;;;;15.02;8.40;;;;;;;;;;10550786;28;20431;-88
2023/11/24 09:31:17;;;;;;;11.00;7.13;;;;;;;;;;10545040;28;20402;-87
2023/11/24 09:36:19;;;;;;;12.95;6.75;;;;;;;;;;10547946;28;20536;-89
2023/11/24 09:41:22;;;;;;;15.15;7.22;;;;;;;;;;10564212;28;20400;-90
2023/11/24 09:46:26;;;;;;;12.57;6.70;;;;;;;;;;10535933;28;20466;-87
2023/11/24 09:51:29;;;;;;;13.63;7.78;;;;;;;;;;10514132;28;20868;-89
2023/11/24 09:56:31;;;;;;;11.43;6.83;;;;;;;;;;10547801;28;20876;-89
2023/11/24 10:01:37;;;;;;;11.68;6.72;;;;;;;;;;10550427;28;20399;-90
2023/11/24 10:06:43;;;;;;;14.55;7.72;;;;;;;;;;10511929;28;20456;-90
2023/11/24 10:11:48;;;;;;;16.75;7.90;;;;;;;;;;10536826;28;20399;-88
2023/11/24 10:16:52;;;;;;;13.32;8.18;;;;;;;;;;10555425;28;20408;-88
2023/11/24 10:21:55;;;;;;;13.33;7.90;;;;;;;;;;10536060;28;21035;-89
2023/11/24 10:26:58;;;;;;;17.80;8.30;;;;;;;;;;10525423;28;20450;-89
2023/11/24 10:32:03;;;;;;;13.30;8.70;;;;;;;;;;10529952;28;20394;-89
2023/11/24 10:37:08;;;;;;;17.35;8.35;;;;;;;;;;10536812;28;20393;-88
2023/11/24 10:42:11;;;;;;;17.83;10.50;;;;;;;;;;10511380;28;20394;-89
2023/11/24 10:47:20;;;;;;;17.43;9.43;;;;;;;;;;10526002;28;20424;-88
2023/11/24 10:52:28;;;;;;;17.00;11.20;;;;;;;;;;10563510;28;20403;-88
2023/11/24 10:57:31;;;;;;;19.10;11.55;;;;;;;;;;10538886;28;20452;-88
2023/11/24 11:02:40;;;;;;;17.10;11.05;;;;;;;;;;10533078;28;20407;-89
2023/11/24 11:07:53;;;;;;;18.70;11.63;;;;;;;;;;10547239;28;20450;-87
2023/11/24 11:12:57;;;;;;;19.60;12.55;;;;;;;;;;10522965;28;20802;-87
2023/11/24 11:18:14;;;;;;;19.83;11.65;;;;;;;;;;10559299;28;20765;-87
2023/11/24 11:23:16;;;;;;;19.33;11.88;;;;;;;;;;10513903;28;20396;-87
2023/11/24 11:28:51;;;;;;;21.52;13.00;;;;;;;;;;10544447;28;20499;-87
2023/11/24 11:33:55;;;;;;;21.17;13.20;;;;;;;;;;10525706;28;20396;-86
2023/11/24 11:39:00;;;;;;;23.45;14.35;;;;;;;;;;10532977;28;20404;-87
2023/11/24 11:44:17;;;;;;;20.80;13.95;;;;;;;;;;10541249;28;20398;-87
2023/11/24 11:49:23;;;;;;;28.70;16.60;;;;;;;;;;10546752;28;20421;-87
2023/11/24 11:54:26;;;;;;;28.95;16.55;;;;;;;;;;10531979;28;20410;-87
2023/11/24 11:59:29;;;;;;;30.00;17.43;;;;;;;;;;10525397;28;20404;-88
2023/11/24 12:04:34;;;;;;;29.17;18.63;;;;;;;;;;10528356;28;20953;-87
2023/11/24 12:09:36;;;;;;;30.50;17.75;;;;;;;;;;10528455;28;20442;-87
2023/11/24 12:14:41;;;;;;;25.77;16.37;;;;;;;;;;10548734;28;20967;-91
2023/11/24 12:19:45;;;;;;;27.60;15.80;;;;;;;;;;10519752;28;20411;-90
2023/11/24 12:24:47;;;;;;;25.97;15.00;;;;;;;;;;10530404;28;20462;-90
2023/11/24 12:29:51;;;;;;;25.17;15.00;;;;;;;;;;10536439;28;20766;-92
2023/11/24 12:34:59;;;;;;;24.38;15.13;;;;;;;;;;10555398;28;20395;-90
2023/11/24 12:40:02;;;;;;;22.15;13.80;;;;;;;;;;10531455;28;20402;-88
2023/11/24 12:45:08;;;;;;;23.83;14.52;;;;;;;;;;10519408;28;20412;-89
2023/11/24 12:50:12;;;;;;;23.35;14.00;;;;;;;;;;10540432;28;20422;-90
2023/11/24 12:55:16;;;;;;;25.55;14.32;;;;;;;;;;10537089;28;20404;-92
2023/11/24 13:00:24;;;;;;;23.73;13.50;;;;;;;;;;10528237;28;20450;-87
2023/11/24 13:05:28;;;;;;;23.00;13.98;;;;;;;;;;10523967;28;20435;-87
2023/11/24 13:10:31;;;;;;;25.53;14.97;;;;;;;;;;10515828;28;20416;-87
2023/11/24 13:15:34;;;;;;;22.67;14.40;;;;;;;;;;10514760;28;20406;-87
2023/11/24 13:20:38;;;;;;;26.52;14.07;;;;;;;;;;10514123;28;20447;-87
2023/11/24 13:25:41;;;;;;;26.85;15.15;;;;;;;;;;10522755;28;20878;-86
2023/11/24 13:30:44;;;;;;;27.58;15.60;;;;;;;;;;10523423;28;20424;-86
2023/11/24 13:35:47;;;;;;;26.17;15.93;;;;;;;;;;10517313;28;20406;-87
2023/11/24 13:40:52;;;;;;;25.30;15.00;;;;;;;;;;10520489;28;20412;-87
2023/11/24 13:45:54;;;;;;;25.63;15.75;;;;;;;;;;10513925;28;20437;-85
2023/11/24 13:50:59;;;;;;;28.73;17.05;;;;;;;;;;10507087;28;20507;-86
2023/11/24 13:56:01;;;;;;;27.33;16.27;;;;;;;;;;10514354;28;20517;-87
2023/11/24 14:01:05;;;;;;;28.50;16.63;;;;;;;;;;10509850;28;20410;-86
2023/11/24 14:06:09;;;;;;;27.70;17.85;;;;;;;;;;10511007;28;20410;-87
2023/11/24 14:11:12;;;;;;;30.07;18.33;;;;;;;;;;10514326;28;20456;-86
2023/11/24 14:16:15;;;;;;;30.95;18.30;;;;;;;;;;10509088;28;20527;-86
2023/11/24 14:21:19;;;;;;;32.45;20.20;;;;;;;;;;10503668;28;21050;-85
2023/11/24 14:26:24;;;;;;;31.27;18.98;;;;;;;;;;10507262;28;20661;-86
2023/11/24 14:31:26;;;;;;;31.25;20.10;;;;;;;;;;10500532;28;20421;-86
2023/11/24 14:36:30;;;;;;;40.65;23.15;;;;;;;;;;10514537;28;20407;-86
2023/11/24 14:41:33;;;;;;;38.63;22.50;;;;;;;;;;10518188;28;20461;-87
2023/11/24 14:46:35;;;;;;;40.57;24.30;;;;;;;;;;10503901;28;20483;-88
2023/11/24 14:51:39;;;;;;;45.03;25.33;;;;;;;;;;10512214;28;20515;-86
2023/11/24 14:56:43;;;;;;;47.08;27.13;;;;;;;;;;10513446;28;21105;-86
2023/11/24 15:01:45;;;;;;;45.00;26.73;;;;;;;;;;10513090;28;20534;-86
2023/11/24 15:06:51;;;;;;;48.50;27.40;;;;;;;;;;10513038;28;20955;-86
2023/11/24 15:11:53;;;;;;;45.28;28.38;;;;;;;;;;10522166;28;20412;-86
2023/11/24 15:16:57;;;;;;;46.30;28.13;;;;;;;;;;10520345;28;20477;-86
2023/11/24 15:22:04;;;;;;;56.80;32.10;;;;;;;;;;10511816;28;20388;-88
2023/11/24 15:27:07;;;;;;;55.57;30.80;;;;;;;;;;10502615;28;20755;-86
2023/11/24 15:32:17;;;;;;;57.38;30.27;;;;;;;;;;10510808;28;20499;-87
2023/11/24 15:37:22;;;;;;;51.43;30.93;;;;;;;;;;10504836;28;20660;-86
2023/11/24 15:42:27;;;;;;;48.80;30.83;;;;;;;;;;10517687;28;20395;-85
2023/11/24 15:47:30;;;;;;;58.75;30.50;;;;;;;;;;10504191;28;20407;-86
2023/11/24 15:52:35;;;;;;;53.67;31.50;;;;;;;;;;10507070;28;20443;-86
2023/11/24 15:57:39;;;;;;;51.58;30.13;;;;;;;;;;10506802;28;20465;-86
2023/11/24 16:02:41;;;;;;;51.00;29.93;;;;;;;;;;10513851;28;20405;-87
2023/11/24 16:07:47;;;;;;;45.17;29.25;;;;;;;;;;10523821;28;20414;-88
2023/11/24 16:12:53;;;;;;;53.15;30.17;;;;;;;;;;10509243;28;20479;-85
2023/11/24 16:17:56;;;;;;;53.50;30.63;;;;;;;;;;10517642;28;20427;-84
2023/11/24 16:23:00;;;;;;;51.10;29.80;;;;;;;;;;10521329;28;20416;-87
2023/11/24 16:28:03;;;;;;;52.63;31.77;;;;;;;;;;10515433;28;20391;-87
2023/11/24 16:33:05;;;;;;;52.45;28.92;;;;;;;;;;10520624;28;20400;-87
2023/11/24 16:38:09;;;;;;;49.28;28.63;;;;;;;;;;10513983;28;20465;-87
2023/11/24 16:43:12;;;;;;;53.22;29.55;;;;;;;;;;10526915;28;20491;-87
2023/11/24 16:48:14;;;;;;;67.22;33.40;;;;;;;;;;10514051;28;20440;-87
2023/11/24 16:53:18;;;;;;;53.55;30.70;;;;;;;;;;10519522;28;20804;-86
2023/11/24 16:58:20;;;;;;;144.25;54.65;;;;;;;;;;10515570;28;20885;-87
2023/11/24 17:03:22;;;;;;;116.38;47.35;;;;;;;;;;10522151;28;21369;-87
2023/11/24 17:08:27;;;;;;;49.35;27.83;;;;;;;;;;10511415;28;20505;-87
2023/11/24 17:13:29;;;;;;;263.90;92.63;;;;;;;;;;10522909;28;20474;-87
2023/11/24 17:18:33;;;;;;;123.03;47.37;;;;;;;;;;10507757;28;20491;-86
2023/11/24 17:23:40;;;;;;;114.20;45.70;;;;;;;;;;10517371;28;20904;-86
2023/11/24 17:28:45;;;;;;;133.97;55.93;;;;;;;;;;10518051;28;20441;-88
2023/11/24 17:33:47;;;;;;;122.63;56.67;;;;;;;;;;10516591;28;20462;-88
2023/11/24 17:38:51;;;;;;;91.83;43.33;;;;;;;;;;10533871;28;20396;-89
2023/11/24 17:43:54;;;;;;;63.20;31.77;;;;;;;;;;10507286;28;20436;-88
2023/11/24 17:48:56;;;;;;;61.67;34.17;;;;;;;;;;10493740;28;20414;-86
2023/11/24 17:54:01;;;;;;;59.92;36.50;;;;;;;;;;10520134;28;20907;-83
2023/11/24 17:59:03;;;;;;;49.65;27.88;;;;;;;;;;10522174;28;20405;-88
2023/11/24 18:04:07;;;;;;;53.33;30.87;;;;;;;;;;10509410;28;20400;-87
2023/11/24 18:09:10;;;;;;;65.18;37.63;;;;;;;;;;10519799;28;20923;-87
2023/11/24 18:14:13;;;;;;;48.30;28.57;;;;;;;;;;10526146;28;20412;-87
2023/11/24 18:19:15;;;;;;;49.20;28.27;;;;;;;;;;10522908;28;20408;-87
2023/11/24 18:24:19;;;;;;;50.83;28.77;;;;;;;;;;10511717;28;20418;-86
2023/11/24 18:29:22;;;;;;;52.65;31.85;;;;;;;;;;10531393;28;20412;-89
2023/11/24 18:34:27;;;;;;;51.00;29.60;;;;;;;;;;10500344;28;20398;-89
2023/11/24 18:39:31;;;;;;;55.00;32.83;;;;;;;;;;10511357;28;20412;-87
2023/11/24 18:44:33;;;;;;;76.13;41.03;;;;;;;;;;10522113;28;20404;-88
2023/11/24 18:49:36;;;;;;;71.28;39.17;;;;;;;;;;10514011;28;20483;-88
2023/11/24 18:54:40;;;;;;;52.25;29.10;;;;;;;;;;10527266;28;20561;-88
2023/11/24 18:59:42;;;;;;;52.15;28.05;;;;;;;;;;10526694;28;20408;-88
2023/11/24 19:04:44;;;;;;;49.33;28.42;;;;;;;;;;10511071;28;20412;-89
2023/11/24 19:09:48;;;;;;;51.10;29.33;;;;;;;;;;10502595;28;20426;-86
2023/11/24 19:14:50;;;;;;;51.55;30.13;;;;;;;;;;10525653;28;20412;-86
2023/11/24 19:19:53;;;;;;;51.85;30.30;;;;;;;;;;10525266;28;20414;-89
2023/11/24 19:24:57;;;;;;;51.78;29.38;;;;;;;;;;10514649;28;20474;-89
2023/11/24 19:29:59;;;;;;;61.65;34.53;;;;;;;;;;10532659;28;20412;-87
2023/11/24 19:35:03;;;;;;;58.05;31.05;;;;;;;;;;10526203;28;20412;-86
2023/11/24 19:40:08;;;;;;;46.83;27.85;;;;;;;;;;10538285;28;20415;-87
2023/11/24 19:45:11;;;;;;;46.55;26.80;;;;;;;;;;10543343;28;20401;-87
2023/11/24 19:50:13;;;;;;;45.80;27.00;;;;;;;;;;10522098;28;20417;-86
2023/11/24 19:55:17;;;;;;;43.03;25.58;;;;;;;;;;10542866;28;20491;-87
2023/11/24 20:00:20;;;;;;;42.28;24.85;;;;;;;;;;10520786;28;20922;-87
2023/11/24 20:05:22;;;;;;;40.10;24.73;;;;;;;;;;10536908;28;20497;-88
2023/11/24 20:10:27;;;;;;;42.63;24.23;;;;;;;;;;10529134;28;20420;-88
2023/11/24 20:15:31;;;;;;;50.00;29.10;;;;;;;;;;10526021;28;20494;-87
2023/11/24 20:20:38;;;;;;;51.13;29.17;;;;;;;;;;10518156;28;20451;-87
2023/11/24 20:25:41;;;;;;;45.05;25.73;;;;;;;;;;10523328;28;20919;-88
2023/11/24 20:30:44;;;;;;;48.07;24.77;;;;;;;;;;10525970;28;20422;-91
2023/11/24 20:35:46;;;;;;;43.40;24.17;;;;;;;;;;10534700;28;20887;-87
2023/11/24 20:40:54;;;;;;;40.42;23.50;;;;;;;;;;10508517;28;20436;-88
2023/11/24 20:45:57;;;;;;;41.13;23.60;;;;;;;;;;10503825;28;20423;-88
2023/11/24 20:50:59;;;;;;;40.25;23.67;;;;;;;;;;10513993;28;21049;-88
2023/11/24 20:56:04;;;;;;;45.00;24.88;;;;;;;;;;10516413;28;20408;-88
2023/11/24 21:01:06;;;;;;;49.03;28.55;;;;;;;;;;10522486;28;20465;-88
2023/11/24 21:06:09;;;;;;;46.88;27.13;;;;;;;;;;10518040;28;20909;-87
2023/11/24 21:11:13;;;;;;;50.80;28.20;;;;;;;;;;10511636;28;20461;-88
2023/11/24 21:16:16;;;;;;;90.88;45.85;;;;;;;;;;10523920;28;20899;-88
2023/11/24 21:21:18;;;;;;;54.38;30.42;;;;;;;;;;10519069;28;20412;-88
2023/11/24 21:26:22;;;;;;;51.27;28.90;;;;;;;;;;10551249;28;20420;-88
2023/11/24 21:31:24;;;;;;;52.47;28.17;;;;;;;;;;10519877;28;20416;-88
2023/11/24 21:36:27;;;;;;;49.23;28.50;;;;;;;;;;10525883;28;20777;-88
2023/11/24 21:41:30;;;;;;;44.22;25.88;;;;;;;;;;10527930;28;20424;-88
2023/11/24 21:46:33;;;;;;;44.83;26.83;;;;;;;;;;10539149;28;20423;-88
2023/11/24 21:51:35;;;;;;;47.30;27.35;;;;;;;;;;10515694;28;20412;-88
2023/11/24 21:56:39;;;;;;;43.75;25.42;;;;;;;;;;10540568;28;20412;-88
2023/11/24 22:01:41;;;;;;;50.27;26.40;;;;;;;;;;10521724;28;20442;-88
2023/11/24 22:06:43;;;;;;;48.00;26.25;;;;;;;;;;10534234;28;20434;-88
2023/11/24 22:11:48;;;;;;;49.20;26.15;;;;;;;;;;10517527;28;20418;-88
2023/11/24 22:16:50;;;;;;;45.95;25.50;;;;;;;;;;10519438;28;20411;-88
2023/11/24 22:21:53;;;;;;;43.72;25.77;;;;;;;;;;10518478;28;20955;-88
2023/11/24 22:27:00;;;;;;;43.47;24.33;;;;;;;;;;10512753;28;20472;-89
2023/11/24 22:32:03;;;;;;;46.13;25.67;;;;;;;;;;10511112;28;20503;-88
2023/11/24 22:37:05;;;;;;;47.77;25.33;;;;;;;;;;10504823;28;20469;-89
2023/11/24 22:42:09;;;;;;;43.35;23.90;;;;;;;;;;10510407;28;20406;-88
2023/11/24 22:47:11;;;;;;;38.67;23.20;;;;;;;;;;10507425;28;20471;-87
2023/11/24 22:52:14;;;;;;;40.03;22.47;;;;;;;;;;10516375;28;20449;-88
2023/11/24 22:57:17;;;;;;;38.58;22.13;;;;;;;;;;10513320;28;20490;-88
2023/11/24 23:02:20;;;;;;;37.47;21.27;;;;;;;;;;10521078;28;20460;-87
2023/11/24 23:07:24;;;;;;;36.60;21.05;;;;;;;;;;10519329;28;20473;-87
2023/11/24 23:12:28;;;;;;;33.83;19.43;;;;;;;;;;10508533;28;20451;-88
2023/11/24 23:17:30;;;;;;;31.45;18.65;;;;;;;;;;10511355;28;20425;-87
2023/11/24 23:22:33;;;;;;;34.23;19.10;;;;;;;;;;10508395;28;20410;-88
2023/11/24 23:27:37;;;;;;;32.10;17.38;;;;;;;;;;10506965;28;20406;-87
2023/11/24 23:32:39;;;;;;;27.63;16.83;;;;;;;;;;10515855;28;20427;-88
2023/11/24 23:37:44;;;;;;;31.15;18.90;;;;;;;;;;10509331;28;20940;-88
2023/11/24 23:42:48;;;;;;;31.83;17.47;;;;;;;;;;10514096;28;20393;-88
2023/11/24 23:47:52;;;;;;;32.73;18.10;;;;;;;;;;10514706;28;20434;-87
2023/11/24 23:52:54;;;;;;;29.02;17.17;;;;;;;;;;10522306;28;20505;-89
2023/11/24 23:57:58;;;;;;;29.20;15.85;;;;;;;;;;10513544;28;20465;-89
